This is the latest recevied weather packets stored in our database for station/object 9W4GWK-G. If no packets are shown the sender has not sent any weather packets the latest 10 day(s).
| Time | Temp. | Humidity | Pressure | Rain* | Wind** | Luminosity | Snow |
|---|---|---|---|---|---|---|---|
| 1788139304 | 90° F | 61% | 760.7 mmHg | - | - | - | - |
| 1788138401 | 89° F | 62% | 760.6 mmHg | - | - | - | - |
| 1788137499 | 88° F | 61% | 760.4 mmHg | - | - | - | - |
| 1788136597 | 87° F | 49% | 760.2 mmHg | - | - | - | - |
| 1788135695 | 86° F | 48% | 759.9 mmHg | - | - | - | - |
| 1788134792 | 84° F | 43% | 759.7 mmHg | - | - | - | - |
| 1788133890 | 83° F | 36% | 759.5 mmHg | - | - | - | - |
| 1788132988 | 83° F | 36% | 759.4 mmHg | - | - | - | - |
| 1788132086 | 83° F | 35% | 759.4 mmHg | - | - | - | - |
| 1788131184 | 83° F | 36% | 759.4 mmHg | - | - | - | - |
| 1788130281 | 83° F | 36% | 759.4 mmHg | - | - | - | - |
| 1788129379 | 83° F | 36% | 759.4 mmHg | - | - | - | - |
| 1788128477 | 84° F | 35% | 759.3 mmHg | - | - | - | - |
| 1788127575 | 84° F | 35% | 759.3 mmHg | - | - | - | - |
| 1788126672 | 84° F | 36% | 759.4 mmHg | - | - | - | - |
| 1788125770 | 84° F | 35% | 759.3 mmHg | - | - | - | - |
| 1788124868 | 84° F | 35% | 759.1 mmHg | - | - | - | - |
| 1788123966 | 84° F | 35% | 759 mmHg | - | - | - | - |
| 1788123064 | 85° F | 35% | 759 mmHg | - | - | - | - |
| 1788122163 | 85° F | 34% | 758.9 mmHg | - | - | - | - |
| 1788121261 | 85° F | 35% | 758.9 mmHg | - | - | - | - |
| 1788120359 | 85° F | 35% | 759 mmHg | - | - | - | - |
| 1788119457 | 86° F | 35% | 758.9 mmHg | - | - | - | - |
| 1788118555 | 86° F | 35% | 758.9 mmHg | - | - | - | - |
| 1788117653 | 86° F | 35% | 758.8 mmHg | - | - | - | - |
* Rain since midnight (hover to see other rain measurements)
** Current wind speed in m/s (hover to see current wind gust speed)